sensor_id;sensor_type;location;lat;lon;timestamp;pressure;altitude;pressure_sealevel;temperature;humidity
9281;BME280;4679;47.966;7.958;2023-03-14T06:59:39;95330.13;;;11.09;60.29
9281;BME280;4679;47.966;7.958;2023-03-14T07:01:40;95334.06;;;11.12;61.07
9281;BME280;4679;47.966;7.958;2023-03-14T07:03:42;95348.63;;;11.14;60.81
9281;BME280;4679;47.966;7.958;2023-03-14T07:05:44;95331.31;;;11.17;60.13
9281;BME280;4679;47.966;7.958;2023-03-14T07:07:45;95342.13;;;11.20;60.98
9281;BME280;4679;47.966;7.958;2023-03-14T07:09:47;95340.50;;;11.24;60.49
9281;BME280;4679;47.966;7.958;2023-03-14T07:11:49;95327.13;;;11.30;59.45
9281;BME280;4679;47.966;7.958;2023-03-14T07:13:50;95344.81;;;11.34;60.26
9281;BME280;4679;47.966;7.958;2023-03-14T07:15:53;95326.53;;;11.33;60.32
9281;BME280;4679;47.966;7.958;2023-03-14T07:17:55;95343.75;;;11.35;60.18
9281;BME280;4679;47.966;7.958;2023-03-14T07:19:57;95340.94;;;11.45;60.05
9281;BME280;4679;47.966;7.958;2023-03-14T07:21:59;95346.44;;;11.49;59.20
9281;BME280;4679;47.966;7.958;2023-03-14T07:24:01;95354.09;;;11.50;59.43
9281;BME280;4679;47.966;7.958;2023-03-14T07:26:03;95346.13;;;11.50;59.21
9281;BME280;4679;47.966;7.958;2023-03-14T07:28:05;95354.41;;;11.49;59.10
9281;BME280;4679;47.966;7.958;2023-03-14T07:30:07;95359.63;;;11.54;59.26
9281;BME280;4679;47.966;7.958;2023-03-14T07:32:11;95363.56;;;11.56;59.00
9281;BME280;4679;47.966;7.958;2023-03-14T07:34:15;95361.41;;;11.58;58.62
9281;BME280;4679;47.966;7.958;2023-03-14T07:36:16;95362.38;;;11.62;58.60
9281;BME280;4679;47.966;7.958;2023-03-14T07:38:18;95372.94;;;11.68;58.81
9281;BME280;4679;47.966;7.958;2023-03-14T07:40:20;95365.97;;;11.72;58.72
9281;BME280;4679;47.966;7.958;2023-03-14T07:42:21;95369.69;;;11.71;59.13
9281;BME280;4679;47.966;7.958;2023-03-14T07:44:23;95374.22;;;11.70;58.99
9281;BME280;4679;47.966;7.958;2023-03-14T07:46:25;95366.81;;;11.67;58.94
9281;BME280;4679;47.966;7.958;2023-03-14T07:48:28;95357.28;;;11.66;58.67
9281;BME280;4679;47.966;7.958;2023-03-14T07:50:29;95370.00;;;11.69;58.97
9281;BME280;4679;47.966;7.958;2023-03-14T07:52:31;95375.81;;;11.71;59.13
9281;BME280;4679;47.966;7.958;2023-03-14T07:54:33;95396.47;;;11.74;59.02
9281;BME280;4679;47.966;7.958;2023-03-14T07:56:36;95385.63;;;11.71;58.22
9281;BME280;4679;47.966;7.958;2023-03-14T07:58:38;95395.75;;;11.69;58.31
9281;BME280;4679;47.966;7.958;2023-03-14T08:00:39;95398.41;;;11.69;58.40
9281;BME280;4679;47.966;7.958;2023-03-14T08:02:42;95400.88;;;11.65;59.44
9281;BME280;4679;47.966;7.958;2023-03-14T08:04:45;95404.09;;;11.62;58.99
9281;BME280;4679;47.966;7.958;2023-03-14T08:06:47;95405.50;;;11.59;59.49
9281;BME280;4679;47.966;7.958;2023-03-14T08:08:48;95417.28;;;11.53;58.50
9281;BME280;4679;47.966;7.958;2023-03-14T08:10:50;95407.50;;;11.49;59.52
9281;BME280;4679;47.966;7.958;2023-03-14T08:12:54;95405.16;;;11.47;59.13
9281;BME280;4679;47.966;7.958;2023-03-14T08:14:56;95403.56;;;11.46;59.43
9281;BME280;4679;47.966;7.958;2023-03-14T08:16:59;95414.19;;;11.46;59.10
9281;BME280;4679;47.966;7.958;2023-03-14T08:19:01;95406.13;;;11.38;60.16
9281;BME280;4679;47.966;7.958;2023-03-14T08:21:04;95425.84;;;11.32;59.39
9281;BME280;4679;47.966;7.958;2023-03-14T08:23:06;95424.88;;;11.27;59.86
9281;BME280;4679;47.966;7.958;2023-03-14T08:25:08;95434.41;;;11.28;60.51
9281;BME280;4679;47.966;7.958;2023-03-14T08:27:10;95434.69;;;11.27;60.71
9281;BME280;4679;47.966;7.958;2023-03-14T08:29:12;95432.13;;;11.22;59.90
9281;BME280;4679;47.966;7.958;2023-03-14T08:31:13;95434.66;;;11.13;60.90
9281;BME280;4679;47.966;7.958;2023-03-14T08:33:15;95444.53;;;11.08;61.47
9281;BME280;4679;47.966;7.958;2023-03-14T08:35:17;95436.84;;;11.06;61.21
9281;BME280;4679;47.966;7.958;2023-03-14T08:37:20;95445.09;;;11.05;60.19
9281;BME280;4679;47.966;7.958;2023-03-14T08:39:22;95445.38;;;11.03;61.31
9281;BME280;4679;47.966;7.958;2023-03-14T08:41:24;95453.63;;;11.02;60.38
9281;BME280;4679;47.966;7.958;2023-03-14T08:43:26;95449.72;;;10.99;61.21
9281;BME280;4679;47.966;7.958;2023-03-14T08:45:28;95459.09;;;10.91;62.07
9281;BME280;4679;47.966;7.958;2023-03-14T08:47:30;95472.13;;;10.88;61.68
9281;BME280;4679;47.966;7.958;2023-03-14T08:49:32;95466.19;;;10.77;62.24
9281;BME280;4679;47.966;7.958;2023-03-14T08:51:33;95469.97;;;10.71;61.94
9281;BME280;4679;47.966;7.958;2023-03-14T08:53:37;95471.03;;;10.70;62.93
9281;BME280;4679;47.966;7.958;2023-03-14T08:55:38;95471.13;;;10.65;62.27
9281;BME280;4679;47.966;7.958;2023-03-14T08:57:40;95471.41;;;10.64;62.92
9281;BME280;4679;47.966;7.958;2023-03-14T08:59:42;95470.31;;;10.65;63.17
9281;BME280;4679;47.966;7.958;2023-03-14T09:01:43;95476.66;;;10.69;63.12
9281;BME280;4679;47.966;7.958;2023-03-14T09:03:45;95470.41;;;10.78;63.02
9281;BME280;4679;47.966;7.958;2023-03-14T09:05:48;95461.22;;;10.89;62.04
9281;BME280;4679;47.966;7.958;2023-03-14T09:07:50;95457.97;;;10.98;61.92
9281;BME280;4679;47.966;7.958;2023-03-14T09:09:53;95451.13;;;11.10;62.68
9281;BME280;4679;47.966;7.958;2023-03-14T09:11:54;95462.53;;;11.30;62.16
9281;BME280;4679;47.966;7.958;2023-03-14T09:13:56;95462.78;;;11.47;62.55
9281;BME280;4679;47.966;7.958;2023-03-14T09:15:58;95461.47;;;11.63;61.47
9281;BME280;4679;47.966;7.958;2023-03-14T09:18:00;95458.22;;;11.66;61.90
9281;BME280;4679;47.966;7.958;2023-03-14T09:20:02;95458.22;;;11.66;62.18
9281;BME280;4679;47.966;7.958;2023-03-14T09:22:07;95462.97;;;11.69;62.10
9281;BME280;4679;47.966;7.958;2023-03-14T09:24:08;95460.81;;;11.71;62.39
9281;BME280;4679;47.966;7.958;2023-03-14T09:26:12;95459.00;;;11.85;61.85
9281;BME280;4679;47.966;7.958;2023-03-14T09:28:14;95458.81;;;11.95;62.57
9281;BME280;4679;47.966;7.958;2023-03-14T09:30:15;95460.97;;;11.93;62.14
9281;BME280;4679;47.966;7.958;2023-03-14T09:32:17;95463.53;;;11.85;62.14
9281;BME280;4679;47.966;7.958;2023-03-14T09:34:19;95466.22;;;11.66;62.29
9281;BME280;4679;47.966;7.958;2023-03-14T09:36:21;95464.00;;;11.54;63.02
9281;BME280;4679;47.966;7.958;2023-03-14T09:38:23;95465.25;;;11.43;63.12
9281;BME280;4679;47.966;7.958;2023-03-14T09:40:31;95477.31;;;11.36;63.27
9281;BME280;4679;47.966;7.958;2023-03-14T09:42:37;95463.13;;;11.26;63.80
9281;BME280;4679;47.966;7.958;2023-03-14T09:44:47;95477.31;;;11.17;63.66
9281;BME280;4679;47.966;7.958;2023-03-14T09:47:03;95487.44;;;10.96;64.15
9281;BME280;4679;47.966;7.958;2023-03-14T09:49:12;95475.25;;;10.71;65.57
9281;BME280;4679;47.966;7.958;2023-03-14T09:51:17;95484.56;;;10.50;64.96
9281;BME280;4679;47.966;7.958;2023-03-14T09:53:21;95495.31;;;10.35;66.35
9281;BME280;4679;47.966;7.958;2023-03-14T09:55:25;95502.16;;;10.12;66.18
9281;BME280;4679;47.966;7.958;2023-03-14T09:57:27;95500.13;;;9.75;68.09
9281;BME280;4679;47.966;7.958;2023-03-14T09:59:31;95486.66;;;9.66;68.16
9281;BME280;4679;47.966;7.958;2023-03-14T10:01:35;95488.25;;;9.67;68.19
9281;BME280;4679;47.966;7.958;2023-03-14T10:03:37;95507.81;;;9.71;68.23
9281;BME280;4679;47.966;7.958;2023-03-14T10:05:40;95492.75;;;9.67;68.05
9281;BME280;4679;47.966;7.958;2023-03-14T10:07:42;95493.03;;;9.65;68.18
9281;BME280;4679;47.966;7.958;2023-03-14T10:09:45;95480.84;;;9.64;68.75
9281;BME280;4679;47.966;7.958;2023-03-14T10:11:47;95510.56;;;9.61;68.65
9281;BME280;4679;47.966;7.958;2023-03-14T10:14:01;95501.06;;;9.55;68.63
9281;BME280;4679;47.966;7.958;2023-03-14T10:16:06;95508.75;;;9.51;69.78
9281;BME280;4679;47.966;7.958;2023-03-14T10:18:11;95500.28;;;9.49;69.71
9281;BME280;4679;47.966;7.958;2023-03-14T10:20:30;95502.94;;;9.49;69.62
9281;BME280;4679;47.966;7.958;2023-03-14T10:22:34;95515.44;;;9.44;69.26
9281;BME280;4679;47.966;7.958;2023-03-14T10:24:37;95526.56;;;9.41;70.35
9281;BME280;4679;47.966;7.958;2023-03-14T10:26:39;95512.81;;;9.39;70.10
9281;BME280;4679;47.966;7.958;2023-03-14T10:28:45;95501.44;;;9.38;70.02
9281;BME280;4679;47.966;7.958;2023-03-14T10:30:47;95514.94;;;9.37;71.12
9281;BME280;4679;47.966;7.958;2023-03-14T10:32:51;95515.75;;;9.37;70.84
9281;BME280;4679;47.966;7.958;2023-03-14T10:35:20;95511.78;;;9.35;71.16
9281;BME280;4679;47.966;7.958;2023-03-14T10:37:24;95533.53;;;9.32;70.91
9281;BME280;4679;47.966;7.958;2023-03-14T10:39:36;95530.34;;;9.30;71.39
9281;BME280;4679;47.966;7.958;2023-03-14T10:41:47;95539.38;;;9.29;71.15
9281;BME280;4679;47.966;7.958;2023-03-14T10:43:50;95544.66;;;9.24;71.14
9281;BME280;4679;47.966;7.958;2023-03-14T10:45:55;95535.41;;;9.21;71.80
9281;BME280;4679;47.966;7.958;2023-03-14T10:48:16;95545.47;;;9.19;71.69
9281;BME280;4679;47.966;7.958;2023-03-14T10:50:26;95557.44;;;9.16;72.12
9281;BME280;4679;47.966;7.958;2023-03-14T10:52:29;95539.44;;;9.13;72.25
9281;BME280;4679;47.966;7.958;2023-03-14T10:54:31;95558.25;;;9.12;72.03
9281;BME280;4679;47.966;7.958;2023-03-14T10:56:35;95550.56;;;9.10;72.19
9281;BME280;4679;47.966;7.958;2023-03-14T10:58:41;95551.88;;;9.13;72.57
9281;BME280;4679;47.966;7.958;2023-03-14T11:00:43;95551.84;;;9.18;71.95
9281;BME280;4679;47.966;7.958;2023-03-14T11:02:51;95573.78;;;9.24;71.77
9281;BME280;4679;47.966;7.958;2023-03-14T11:05:04;95553.91;;;9.31;71.92
9281;BME280;4679;47.966;7.958;2023-03-14T11:07:14;95556.25;;;9.33;72.45
9281;BME280;4679;47.966;7.958;2023-03-14T11:09:25;95555.41;;;9.42;72.13
9281;BME280;4679;47.966;7.958;2023-03-14T11:11:31;95578.19;;;9.38;72.69
9281;BME280;4679;47.966;7.958;2023-03-14T11:13:37;95577.44;;;9.33;72.40
9281;BME280;4679;47.966;7.958;2023-03-14T11:15:49;95590.16;;;9.31;72.88
9281;BME280;4679;47.966;7.958;2023-03-14T11:18:06;95597.59;;;9.24;73.25
9281;BME280;4679;47.966;7.958;2023-03-14T11:20:25;95604.47;;;9.30;72.68
9281;BME280;4679;47.966;7.958;2023-03-14T11:22:36;95616.63;;;9.31;72.80
9281;BME280;4679;47.966;7.958;2023-03-14T11:24:59;95641.00;;;9.28;72.89
9281;BME280;4679;47.966;7.958;2023-03-14T11:27:07;95634.88;;;9.32;73.08
9281;BME280;4679;47.966;7.958;2023-03-14T11:29:20;95640.41;;;9.36;72.97
9281;BME280;4679;47.966;7.958;2023-03-14T11:31:26;95629.31;;;9.34;73.41
9281;BME280;4679;47.966;7.958;2023-03-14T11:33:44;95643.84;;;9.36;73.42
9281;BME280;4679;47.966;7.958;2023-03-14T11:35:53;95645.16;;;9.39;73.35
9281;BME280;4679;47.966;7.958;2023-03-14T11:38:05;95659.72;;;9.41;73.50
9281;BME280;4679;47.966;7.958;2023-03-14T11:40:14;95651.00;;;9.41;73.65
9281;BME280;4679;47.966;7.958;2023-03-14T11:42:17;95692.28;;;9.37;73.55
9281;BME280;4679;47.966;7.958;2023-03-14T11:44:24;95771.22;;;9.30;73.54
9281;BME280;4679;47.966;7.958;2023-03-14T11:46:32;95788.69;;;8.44;75.05
9281;BME280;4679;47.966;7.958;2023-03-14T11:48:39;95816.41;;;7.64;76.53
9281;BME280;4679;47.966;7.958;2023-03-14T11:50:44;95821.50;;;7.34;76.88
9281;BME280;4679;47.966;7.958;2023-03-14T11:52:52;95857.28;;;7.20;76.83
9281;BME280;4679;47.966;7.958;2023-03-14T11:54:58;95870.66;;;7.08;77.41
9281;BME280;4679;47.966;7.958;2023-03-14T11:57:05;95865.56;;;6.96;77.12
9281;BME280;4679;47.966;7.958;2023-03-14T11:59:16;95880.28;;;6.87;76.84
9281;BME280;4679;47.966;7.958;2023-03-14T12:01:27;95891.84;;;6.86;76.58
9281;BME280;4679;47.966;7.958;2023-03-14T12:03:35;95902.91;;;6.88;77.15
9281;BME280;4679;47.966;7.958;2023-03-14T12:05:46;95901.63;;;6.91;76.39
9281;BME280;4679;47.966;7.958;2023-03-14T12:10:24;95910.72;;;7.05;76.23
9281;BME280;4679;47.966;7.958;2023-03-14T12:12:27;95934.22;;;7.06;76.27
9281;BME280;4679;47.966;7.958;2023-03-14T12:14:33;95935.56;;;7.09;75.80
9281;BME280;4679;47.966;7.958;2023-03-14T12:16:37;95947.69;;;7.10;75.56
9281;BME280;4679;47.966;7.958;2023-03-14T12:18:40;95957.41;;;7.04;76.30
9281;BME280;4679;47.966;7.958;2023-03-14T12:20:51;95949.00;;;7.07;75.74
9281;BME280;4679;47.966;7.958;2023-03-14T12:23:02;95970.88;;;7.08;75.22
9281;BME280;4679;47.966;7.958;2023-03-14T12:25:13;95977.25;;;7.12;75.94
9281;BME280;4679;47.966;7.958;2023-03-14T12:27:41;95983.13;;;7.19;75.13
9281;BME280;4679;47.966;7.958;2023-03-14T12:29:57;95988.50;;;7.29;75.22
9281;BME280;4679;47.966;7.958;2023-03-14T12:32:08;96001.72;;;7.34;74.75
9281;BME280;4679;47.966;7.958;2023-03-14T12:34:30;96003.88;;;7.37;74.60
9281;BME280;4679;47.966;7.958;2023-03-14T12:36:53;96000.50;;;7.42;73.78
9281;BME280;4679;47.966;7.958;2023-03-14T12:39:05;96009.81;;;7.55;74.15
9281;BME280;4679;47.966;7.958;2023-03-14T12:41:15;96005.47;;;7.70;73.60
9281;BME280;4679;47.966;7.958;2023-03-14T12:43:25;96007.19;;;7.87;73.60
9281;BME280;4679;47.966;7.958;2023-03-14T12:45:29;96019.16;;;7.99;72.79
9281;BME280;4679;47.966;7.958;2023-03-14T12:47:49;96021.34;;;8.12;72.15
9281;BME280;4679;47.966;7.958;2023-03-14T12:49:53;96017.19;;;8.22;72.37
9281;BME280;4679;47.966;7.958;2023-03-14T12:51:59;96007.16;;;8.29;71.96
9281;BME280;4679;47.966;7.958;2023-03-14T12:54:19;96005.13;;;8.36;71.86
9281;BME280;4679;47.966;7.958;2023-03-14T12:56:28;96003.28;;;8.41;71.74
9281;BME280;4679;47.966;7.958;2023-03-14T12:58:39;96011.78;;;8.43;71.51
9281;BME280;4679;47.966;7.958;2023-03-14T13:00:51;96005.97;;;8.46;71.70
9281;BME280;4679;47.966;7.958;2023-03-14T13:03:02;96006.47;;;8.43;71.43
9281;BME280;4679;47.966;7.958;2023-03-14T13:05:16;96012.81;;;8.42;70.98
9281;BME280;4679;47.966;7.958;2023-03-14T13:07:32;96021.28;;;8.39;71.14
9281;BME280;4679;47.966;7.958;2023-03-14T13:12:38;96034.41;;;8.29;71.37
9281;BME280;4679;47.966;7.958;2023-03-14T13:14:43;96040.19;;;8.26;71.52
9281;BME280;4679;47.966;7.958;2023-03-14T13:16:46;96047.59;;;8.24;71.09
9281;BME280;4679;47.966;7.958;2023-03-14T13:18:49;96061.81;;;8.18;71.19
9281;BME280;4679;47.966;7.958;2023-03-14T13:20:53;96074.19;;;8.12;71.38
9281;BME280;4679;47.966;7.958;2023-03-14T13:22:55;96089.97;;;8.02;71.33
9281;BME280;4679;47.966;7.958;2023-03-14T13:25:01;96075.88;;;7.92;71.07
9281;BME280;4679;47.966;7.958;2023-03-14T13:27:04;96074.00;;;7.87;71.52
9281;BME280;4679;47.966;7.958;2023-03-14T13:29:15;96076.97;;;7.96;71.33
9281;BME280;4679;47.966;7.958;2023-03-14T13:31:21;96059.06;;;8.03;70.48
9281;BME280;4679;47.966;7.958;2023-03-14T13:33:24;96059.63;;;8.10;70.79
9281;BME280;4679;47.966;7.958;2023-03-14T13:35:27;96065.47;;;8.12;70.66
9281;BME280;4679;47.966;7.958;2023-03-14T13:37:29;96073.63;;;8.05;70.27
9281;BME280;4679;47.966;7.958;2023-03-14T13:39:31;96087.31;;;8.02;70.33
9281;BME280;4679;47.966;7.958;2023-03-14T13:41:33;96095.75;;;7.99;70.37
9281;BME280;4679;47.966;7.958;2023-03-14T13:43:36;96099.19;;;8.00;70.49
9281;BME280;4679;47.966;7.958;2023-03-14T13:46:01;96110.53;;;8.00;70.01
9281;BME280;4679;47.966;7.958;2023-03-14T13:48:04;96097.09;;;8.02;70.37
9281;BME280;4679;47.966;7.958;2023-03-14T13:50:13;96101.31;;;8.03;70.30
9281;BME280;4679;47.966;7.958;2023-03-14T13:52:28;96118.78;;;8.04;69.75
9281;BME280;4679;47.966;7.958;2023-03-14T13:54:31;96118.78;;;8.04;69.71
9281;BME280;4679;47.966;7.958;2023-03-14T13:56:33;96126.44;;;8.05;69.52
9281;BME280;4679;47.966;7.958;2023-03-14T13:58:37;96127.03;;;8.12;69.41
9281;BME280;4679;47.966;7.958;2023-03-14T14:00:39;96122.84;;;8.17;69.16
9281;BME280;4679;47.966;7.958;2023-03-14T14:02:42;96127.06;;;8.18;69.10
9281;BME280;4679;47.966;7.958;2023-03-14T14:04:44;96133.66;;;8.15;69.13
9281;BME280;4679;47.966;7.958;2023-03-14T14:06:49;96136.53;;;8.13;69.19
9281;BME280;4679;47.966;7.958;2023-03-14T14:08:52;96160.56;;;8.12;68.95
9281;BME280;4679;47.966;7.958;2023-03-14T14:10:57;96150.00;;;8.12;68.92
9281;BME280;4679;47.966;7.958;2023-03-14T14:13:02;96135.47;;;8.09;68.56
9281;BME280;4679;47.966;7.958;2023-03-14T14:15:06;96150.25;;;8.10;68.76
9281;BME280;4679;47.966;7.958;2023-03-14T14:17:11;96141.00;;;8.08;68.46
9281;BME280;4679;47.966;7.958;2023-03-14T14:19:16;96152.63;;;8.07;68.94
9281;BME280;4679;47.966;7.958;2023-03-14T14:21:19;96152.09;;;8.10;68.28
9281;BME280;4679;47.966;7.958;2023-03-14T14:23:22;96145.25;;;8.09;68.68
9281;BME280;4679;47.966;7.958;2023-03-14T14:25:26;96150.00;;;8.12;68.55
9281;BME280;4679;47.966;7.958;2023-03-14T14:27:33;96151.84;;;8.11;68.30
9281;BME280;4679;47.966;7.958;2023-03-14T14:29:35;96165.09;;;8.17;68.25
9281;BME280;4679;47.966;7.958;2023-03-14T14:31:36;96165.34;;;8.15;68.29
9281;BME280;4679;47.966;7.958;2023-03-14T14:33:40;96171.13;;;8.12;68.08
9281;BME280;4679;47.966;7.958;2023-03-14T14:35:50;96175.38;;;8.13;68.22
9281;BME280;4679;47.966;7.958;2023-03-14T14:37:53;96171.44;;;8.16;68.03
9281;BME280;4679;47.966;7.958;2023-03-14T14:39:56;96173.84;;;8.17;67.55
9281;BME280;4679;47.966;7.958;2023-03-14T14:41:58;96186.53;;;8.20;67.49
9281;BME280;4679;47.966;7.958;2023-03-14T14:44:00;96185.53;;;8.26;67.45
9281;BME280;4679;47.966;7.958;2023-03-14T14:46:06;96183.44;;;8.28;67.16
9281;BME280;4679;47.966;7.958;2023-03-14T14:48:10;96182.94;;;8.31;67.13
9281;BME280;4679;47.966;7.958;2023-03-14T14:50:26;96181.91;;;8.64;66.47
9281;BME280;4679;47.966;7.958;2023-03-14T14:52:39;96161.13;;;8.83;65.99
9281;BME280;4679;47.966;7.958;2023-03-14T14:54:45;96161.34;;;8.76;66.28
9281;BME280;4679;47.966;7.958;2023-03-14T14:56:49;96167.94;;;8.69;66.15
9281;BME280;4679;47.966;7.958;2023-03-14T14:58:56;96175.84;;;8.69;65.89
9281;BME280;4679;47.966;7.958;2023-03-14T15:01:03;96170.56;;;8.69;65.97
9281;BME280;4679;47.966;7.958;2023-03-14T15:03:12;96175.06;;;8.68;65.65
9281;BME280;4679;47.966;7.958;2023-03-14T15:05:17;96182.16;;;8.63;65.85
9281;BME280;4679;47.966;7.958;2023-03-14T15:07:20;96178.66;;;8.57;65.69
9281;BME280;4679;47.966;7.958;2023-03-14T15:09:23;96188.72;;;8.55;65.58
9281;BME280;4679;47.966;7.958;2023-03-14T15:11:26;96176.81;;;8.53;65.53
9281;BME280;4679;47.966;7.958;2023-03-14T15:13:27;96177.44;;;8.70;65.11
9281;BME280;4679;47.966;7.958;2023-03-14T15:15:29;96162.41;;;8.75;64.55
9281;BME280;4679;47.966;7.958;2023-03-14T15:17:31;96157.59;;;9.20;64.12
9281;BME280;4679;47.966;7.958;2023-03-14T15:19:33;96150.09;;;9.59;63.17
9281;BME280;4679;47.966;7.958;2023-03-14T15:21:34;96127.34;;;9.73;62.25
9281;BME280;4679;47.966;7.958;2023-03-14T15:23:37;96132.09;;;9.81;62.32
9281;BME280;4679;47.966;7.958;2023-03-14T15:25:40;96134.00;;;9.91;62.10
9281;BME280;4679;47.966;7.958;2023-03-14T15:27:42;96138.50;;;10.05;61.66
9281;BME280;4679;47.966;7.958;2023-03-14T15:29:44;96134.78;;;10.11;61.46
9281;BME280;4679;47.966;7.958;2023-03-14T15:31:46;96139.03;;;10.17;61.72
9281;BME280;4679;47.966;7.958;2023-03-14T15:33:48;96140.38;;;10.15;60.67
9281;BME280;4679;47.966;7.958;2023-03-14T15:35:51;96134.31;;;10.19;61.66
9281;BME280;4679;47.966;7.958;2023-03-14T15:37:53;96133.75;;;10.17;61.28
9281;BME280;4679;47.966;7.958;2023-03-14T15:39:55;96139.84;;;10.08;60.88
9281;BME280;4679;47.966;7.958;2023-03-14T15:41:59;96129.00;;;10.19;61.40
9281;BME280;4679;47.966;7.958;2023-03-14T15:44:01;96131.38;;;10.46;60.89
9281;BME280;4679;47.966;7.958;2023-03-14T15:46:03;96122.34;;;10.52;60.23
9281;BME280;4679;47.966;7.958;2023-03-14T15:48:06;96121.00;;;10.60;60.17
9281;BME280;4679;47.966;7.958;2023-03-14T15:50:14;96117.84;;;10.53;60.87
9281;BME280;4679;47.966;7.958;2023-03-14T15:52:15;96125.00;;;10.63;60.92
9281;BME280;4679;47.966;7.958;2023-03-14T15:54:17;96135.63;;;10.52;60.38
9281;BME280;4679;47.966;7.958;2023-03-14T15:56:20;96131.06;;;10.12;61.06
9281;BME280;4679;47.966;7.958;2023-03-14T15:58:25;96132.91;;;9.81;61.79
9281;BME280;4679;47.966;7.958;2023-03-14T16:00:28;96141.09;;;9.70;61.44
9281;BME280;4679;47.966;7.958;2023-03-14T16:02:30;96150.34;;;9.57;61.56
9281;BME280;4679;47.966;7.958;2023-03-14T16:04:32;96147.66;;;9.52;61.47
9281;BME280;4679;47.966;7.958;2023-03-14T16:06:33;96158.50;;;9.50;61.44
9281;BME280;4679;47.966;7.958;2023-03-14T16:08:36;96164.03;;;9.39;61.47
9281;BME280;4679;47.966;7.958;2023-03-14T16:10:38;96170.34;;;9.28;61.96
9281;BME280;4679;47.966;7.958;2023-03-14T16:12:41;96173.47;;;9.20;62.11
9281;BME280;4679;47.966;7.958;2023-03-14T16:14:46;96178.75;;;9.14;61.78
9281;BME280;4679;47.966;7.958;2023-03-14T16:16:48;96175.25;;;9.04;61.96
9281;BME280;4679;47.966;7.958;2023-03-14T16:18:50;96176.03;;;8.99;62.12
9281;BME280;4679;47.966;7.958;2023-03-14T16:20:53;96171.25;;;8.96;62.05
9281;BME280;4679;47.966;7.958;2023-03-14T16:22:55;96186.84;;;8.93;61.80
9281;BME280;4679;47.966;7.958;2023-03-14T16:24:57;96181.75;;;8.86;61.40
9281;BME280;4679;47.966;7.958;2023-03-14T16:26:58;96191.03;;;8.84;61.78
9281;BME280;4679;47.966;7.958;2023-03-14T16:29:00;96181.19;;;8.79;61.90
9281;BME280;4679;47.966;7.958;2023-03-14T16:31:05;96184.59;;;8.74;61.58
9281;BME280;4679;47.966;7.958;2023-03-14T16:33:07;96194.88;;;8.71;61.87
9281;BME280;4679;47.966;7.958;2023-03-14T16:35:09;96227.34;;;8.61;61.86
9281;BME280;4679;47.966;7.958;2023-03-14T16:37:11;96228.56;;;8.49;62.34
9281;BME280;4679;47.966;7.958;2023-03-14T16:39:13;96239.72;;;8.29;62.82
9281;BME280;4679;47.966;7.958;2023-03-14T16:41:16;96228.47;;;8.11;63.46
9281;BME280;4679;47.966;7.958;2023-03-14T16:43:17;96241.03;;;7.99;63.26
9281;BME280;4679;47.966;7.958;2023-03-14T16:45:19;96248.38;;;7.92;63.68
9281;BME280;4679;47.966;7.958;2023-03-14T16:47:22;96258.63;;;7.89;64.24
9281;BME280;4679;47.966;7.958;2023-03-14T16:49:24;96258.06;;;7.87;64.42
9281;BME280;4679;47.966;7.958;2023-03-14T16:51:26;96271.75;;;7.84;64.11
9281;BME280;4679;47.966;7.958;2023-03-14T16:53:27;96272.50;;;7.79;64.30
9281;BME280;4679;47.966;7.958;2023-03-14T16:55:29;96280.38;;;7.74;64.75
9281;BME280;4679;47.966;7.958;2023-03-14T16:57:31;96275.56;;;7.71;64.88
9281;BME280;4679;47.966;7.958;2023-03-14T16:59:33;96285.56;;;7.69;65.30
9281;BME280;4679;47.966;7.958;2023-03-14T17:01:35;96292.13;;;7.66;65.08
9281;BME280;4679;47.966;7.958;2023-03-14T17:03:40;96297.94;;;7.63;65.34
9281;BME280;4679;47.966;7.958;2023-03-14T17:05:44;96307.69;;;7.63;64.85
9281;BME280;4679;47.966;7.958;2023-03-14T17:07:46;96314.00;;;7.62;65.03
9281;BME280;4679;47.966;7.958;2023-03-14T17:09:48;96307.94;;;7.61;65.38
9281;BME280;4679;47.966;7.958;2023-03-14T17:11:51;96319.28;;;7.62;65.82
9281;BME280;4679;47.966;7.958;2023-03-14T17:13:55;96308.50;;;7.63;65.93
9281;BME280;4679;47.966;7.958;2023-03-14T17:15:58;96309.81;;;7.66;65.41
9281;BME280;4679;47.966;7.958;2023-03-14T17:18:00;96319.06;;;7.63;66.12
9281;BME280;4679;47.966;7.958;2023-03-14T17:20:06;96322.19;;;7.60;66.10
9281;BME280;4679;47.966;7.958;2023-03-14T17:22:08;96326.34;;;7.56;66.23
9281;BME280;4679;47.966;7.958;2023-03-14T17:24:11;96329.47;;;7.53;66.37
9281;BME280;4679;47.966;7.958;2023-03-14T17:26:13;96329.13;;;7.50;66.03
9281;BME280;4679;47.966;7.958;2023-03-14T17:28:17;96330.44;;;7.47;66.59
9281;BME280;4679;47.966;7.958;2023-03-14T17:30:19;96344.69;;;7.46;66.69
9281;BME280;4679;47.966;7.958;2023-03-14T17:32:21;96341.72;;;7.43;67.02
9281;BME280;4679;47.966;7.958;2023-03-14T17:34:23;96356.75;;;7.42;66.36
9281;BME280;4679;47.966;7.958;2023-03-14T17:36:26;96353.78;;;7.38;66.79
9281;BME280;4679;47.966;7.958;2023-03-14T17:38:30;96359.31;;;7.37;66.95
9281;BME280;4679;47.966;7.958;2023-03-14T17:40:32;96358.50;;;7.36;66.69
9281;BME280;4679;47.966;7.958;2023-03-14T17:42:34;96364.25;;;7.33;66.84
9281;BME280;4679;47.966;7.958;2023-03-14T17:44:36;96368.78;;;7.33;67.25
9281;BME280;4679;47.966;7.958;2023-03-14T17:46:38;96360.28;;;7.31;67.54
9281;BME280;4679;47.966;7.958;2023-03-14T17:48:41;96376.84;;;7.26;67.13
9281;BME280;4679;47.966;7.958;2023-03-14T17:50:42;96379.38;;;7.21;66.99
9281;BME280;4679;47.966;7.958;2023-03-14T17:52:46;96375.66;;;7.17;67.31
9281;BME280;4679;47.966;7.958;2023-03-14T17:54:48;96377.72;;;7.15;68.15
9281;BME280;4679;47.966;7.958;2023-03-14T17:56:50;96389.78;;;7.11;67.96
9281;BME280;4679;47.966;7.958;2023-03-14T17:58:52;96389.78;;;7.11;67.93
9281;BME280;4679;47.966;7.958;2023-03-14T18:00:54;96400.56;;;7.10;67.21
9281;BME280;4679;47.966;7.958;2023-03-14T18:02:56;96402.41;;;7.09;67.37
9281;BME280;4679;47.966;7.958;2023-03-14T18:04:58;96400.25;;;7.06;67.03
9281;BME280;4679;47.966;7.958;2023-03-14T18:07:00;96408.41;;;7.04;67.56
9281;BME280;4679;47.966;7.958;2023-03-14T18:09:03;96418.94;;;7.04;66.91
9281;BME280;4679;47.966;7.958;2023-03-14T18:11:05;96418.16;;;7.04;66.97
9281;BME280;4679;47.966;7.958;2023-03-14T18:13:07;96420.25;;;7.02;66.97
9281;BME280;4679;47.966;7.958;2023-03-14T18:15:10;96430.22;;;7.00;67.49
9281;BME280;4679;47.966;7.958;2023-03-14T18:17:13;96428.63;;;6.99;67.53
9281;BME280;4679;47.966;7.958;2023-03-14T18:19:15;96435.75;;;6.98;66.66
9281;BME280;4679;47.966;7.958;2023-03-14T18:21:17;96434.13;;;6.97;66.76
9281;BME280;4679;47.966;7.958;2023-03-14T18:23:20;96429.91;;;6.96;66.90
9281;BME280;4679;47.966;7.958;2023-03-14T18:25:23;96435.97;;;6.97;67.42
9281;BME280;4679;47.966;7.958;2023-03-14T18:27:25;96427.03;;;6.98;67.18
9281;BME280;4679;47.966;7.958;2023-03-14T18:29:27;96428.88;;;6.97;66.43